Aviation Digital Data Service (ADDS)

Output produced by METARs form (1704 UTC 30 October 2020)
found at http://www.aviationweather.gov/metar/data/
 
KTCL 301653Z 35012KT 10SM OVC025 13/07 A3025 RMK AO2 SLP241 T01280067
KTCL 301120Z 3012/3112 31006KT P6SM OVC020 
     FM301500 35008KT P6SM BKN035 
     FM301800 36011KT P6SM FEW250 
     FM310000 02005KT P6SM SKC